Time;durP1;ratioP1;P1;durP2;ratioP2;P2;SDS_P1;SDS_P2;PMS_P1;PMS_P2;Temp;Humidity;BMP_temperature;BMP_pressure;BME280_temperature;BME280_humidity;BME280_pressure;Samples;Min_cycle;Max_cycle;Signal;HPM_P1;HPM_P2
2022/04/23 00:00:03;;;;;;;;;;;;;;;;;;341894;28;1002;-63
2022/04/23 00:00:23;;;;;;;;;;;;;;;;;;341589;28;669;-57
2022/04/23 00:00:34;;;;;;;;;;;;;;;;;;341932;28;917;-55
2022/04/23 00:00:44;;;;;;;;;;;;;;;;;;342693;28;783;-62
2022/04/23 00:00:55;;;;;;;;;;;;;;;;;;342990;28;1217;-55
2022/04/23 00:01:06;;;;;;;;;;;;;;;;;;343256;28;1627;-56
2022/04/23 00:01:17;;;;;;;;;;;;;;;;;;343307;28;850;-60
2022/04/23 00:01:27;;;;;;;;;;;;;;;;;;342993;28;915;-56
2022/04/23 00:01:38;;;;;;;;;;;;;;;;;;343151;28;1092;-56
2022/04/23 00:01:48;;;;;;;;;;;;;;;;;;343232;28;790;-62
2022/04/23 00:01:59;;;;;;;;;;;;;;;;;;343129;28;995;-57
2022/04/23 00:02:12;;;;;;;;;;;;;;;;;;343372;28;948;-63
2022/04/23 00:02:22;;;;;;;;;;;;;;;;;;343034;28;838;-55
2022/04/23 00:02:32;;;;;;;;;;;;;;;;;;343418;28;941;-64
2022/04/23 00:02:42;;;;;;;;;;;;;;;;;;343165;28;1210;-58
2022/04/23 00:02:53;;;;;;;;;;;;;;;;;;343319;28;983;-63
2022/04/23 00:03:03;;;;;;;;;;;;;;;;;;343217;28;917;-53
2022/04/23 00:03:14;;;;;;;;;;;;;;;;;;343254;28;946;-53
2022/04/23 00:03:24;;;;;;;;;;;;;;;;;;343109;28;877;-55
2022/04/23 00:03:34;;;;;;;;;;;;;;;;;;343344;28;865;-51
2022/04/23 00:03:45;;;;;;;;;;;;;;;;;;343282;28;917;-60
2022/04/23 00:03:55;;;;;;;;;;;;;;;;;;343170;28;952;-62
2022/04/23 00:04:05;;;;;;;;;;;;;;;;;;343327;28;924;-57
2022/04/23 00:04:17;;;;;;;;;;;;;;;;;;343270;28;842;-57
2022/04/23 00:04:30;;;;;;;;;;;;;;;;;;343037;28;1012;-54
2022/04/23 00:04:40;;;;;;;;;;;;;;;;;;343162;28;941;-48
2022/04/23 00:04:50;;;;;;;;;;;;;;;;;;343291;28;787;-63
2022/04/23 00:05:01;;;;;;;;;;;;;;;;;;343363;28;959;-57
2022/04/23 00:05:11;;;;;;;;;;;;;;;;;;343641;28;901;-54
2022/04/23 00:05:22;;;;;;;;;;;;;;;;;;343456;28;877;-57
2022/04/23 00:05:32;;;;;;;;;;;;;;;;;;343594;28;863;-55
2022/04/23 00:05:43;;;;;;;;;;;;;;;;;;343208;28;1275;-50
2022/04/23 00:05:53;;;;;;;;;;;;;;;;;;343595;28;889;-63
2022/04/23 00:06:04;;;;;;;;;;;;;;;;;;343571;28;949;-59
2022/04/23 00:06:14;;;;;;;;;;;;;;;;;;343553;28;1132;-58
2022/04/23 00:06:24;;;;;;;;;;;;;;;;;;343385;28;901;-53
2022/04/23 00:06:35;;;;;;;;;;;;;;;;;;343640;28;995;-59
2022/04/23 00:06:45;;;;;;;;;;;;;;;;;;343567;28;901;-62
2022/04/23 00:06:56;;;;;;;;;;;;;;;;;;343355;28;919;-57
2022/04/23 00:07:06;;;;;;;;;;;;;;;;;;343550;28;953;-56
2022/04/23 00:07:18;;;;;;;;;;;;;;;;;;343511;28;858;-58
2022/04/23 00:07:28;;;;;;;;;;;;;;;;;;343272;28;982;-59
2022/04/23 00:07:39;;;;;;;;;;;;;;;;;;343625;28;1110;-53
2022/04/23 00:07:49;;;;;;;;;;;;;;;;;;343601;28;889;-58
2022/04/23 00:07:59;;;;;;;;;;;;;;;;;;343497;28;949;-57
2022/04/23 00:08:11;;;;;;;;;;;;;;;;;;343583;28;886;-58
2022/04/23 00:08:21;;;;;;;;;;;;;;;;;;343504;28;834;-55
2022/04/23 00:08:31;;;;;;;;;;;;;;;;;;343389;28;806;-63
2022/04/23 00:08:41;;;;;;;;;;;;;;;;;;343442;28;1027;-57
2022/04/23 00:08:52;;;;;;;;;;;;;;;;;;343306;28;1264;-59
2022/04/23 00:09:02;;;;;;;;;;;;;;;;;;343432;28;890;-60
2022/04/23 00:09:13;;;;;;;;;;;;;;;;;;343474;28;858;-52
2022/04/23 00:09:23;;;;;;;;;;;;;;;;;;343230;28;972;-56
2022/04/23 00:09:34;;;;;;;;;;;;;;;;;;343218;28;898;-57
2022/04/23 00:09:44;;;;;;;;;;;;;;;;;;343014;28;950;-53
2022/04/23 00:09:54;;;;;;;;;;;;;;;;;;343378;28;1176;-58
2022/04/23 00:10:05;;;;;;;;;;;;;;;;;;343676;28;755;-62
2022/04/23 00:10:15;;;;;;;;;;;;;;;;;;343543;28;858;-67
2022/04/23 00:10:26;;;;;;;;;;;;;;;;;;343156;28;1098;-64
2022/04/23 00:10:37;;;;;;;;;;;;;;;;;;343355;28;851;-59
2022/04/23 00:10:47;;;;;;;;;;;;;;;;;;343527;28;814;-64
2022/04/23 00:10:59;;;;;;;;;;;;;;;;;;343288;28;954;-59
2022/04/23 00:11:09;;;;;;;;;;;;;;;;;;343431;28;1238;-49
2022/04/23 00:11:20;;;;;;;;;;;;;;;;;;343479;28;788;-59
2022/04/23 00:11:30;;;;;;;;;;;;;;;;;;343299;28;806;-59
2022/04/23 00:11:41;;;;;;;;;;;;;;;;;;343411;28;1253;-51
2022/04/23 00:11:55;;;;;;;;;;;;;;;;;;343489;28;964;-54
2022/04/23 00:12:06;;;;;;;;;;;;;;;;;;343492;28;953;-63
2022/04/23 00:12:16;;;;;;;;;;;;;;;;;;343078;28;1312;-56
2022/04/23 00:12:27;;;;;;;;;;;;;;;;;;343365;28;846;-54
2022/04/23 00:12:37;;;;;;;;;;;;;;;;;;343510;28;932;-60
2022/04/23 00:12:48;;;;;;;;;;;;;;;;;;343429;28;992;-53
2022/04/23 00:12:59;;;;;;;;;;;;;;;;;;343580;28;842;-57
2022/04/23 00:13:09;;;;;;;;;;;;;;;;;;343629;28;802;-59
2022/04/23 00:13:20;;;;;;;;;;;;;;;;;;343520;28;902;-60
2022/04/23 00:13:30;;;;;;;;;;;;;;;;;;343218;28;1102;-64
2022/04/23 00:13:41;;;;;;;;;;;;;;;;;;343573;28;818;-60
2022/04/23 00:13:52;;;;;;;;;;;;;;;;;;343378;28;810;-57
2022/04/23 00:14:04;;;;;;;;;;;;;;;;;;343336;28;1102;-54
2022/04/23 00:14:14;;;;;;;;;;;;;;;;;;343649;28;775;-55
2022/04/23 00:14:25;;;;;;;;;;;;;;;;;;343378;28;866;-61
2022/04/23 00:14:37;;;;;;;;;;;;;;;;;;343417;28;910;-61
2022/04/23 00:14:47;;;;;;;;;;;;;;;;;;343535;28;917;-58
2022/04/23 00:14:57;;;;;;;;;;;;;;;;;;343483;28;942;-60
2022/04/23 00:15:08;;;;;;;;;;;;;;;;;;343442;28;925;-58
2022/04/23 00:15:18;;;;;;;;;;;;;;;;;;343449;28;1176;-56
2022/04/23 00:15:29;;;;;;;;;;;;;;;;;;343381;28;917;-61
2022/04/23 00:15:39;;;;;;;;;;;;;;;;;;343510;28;964;-60
2022/04/23 00:15:50;;;;;;;;;;;;;;;;;;343402;28;1274;-59
2022/04/23 00:16:00;;;;;;;;;;;;;;;;;;343524;28;882;-58
2022/04/23 00:16:14;;;;;;;;;;;;;;;;;;343477;28;782;-51
2022/04/23 00:16:24;;;;;;;;;;;;;;;;;;342957;28;1389;-57
2022/04/23 00:16:35;;;;;;;;;;;;;;;;;;343493;28;802;-61
2022/04/23 00:16:45;;;;;;;;;;;;;;;;;;343602;28;906;-59
2022/04/23 00:16:57;;;;;;;;;;;;;;;;;;343498;28;795;-57
2022/04/23 00:17:09;;;;;;;;;;;;;;;;;;343577;28;819;-53
2022/04/23 00:17:19;;;;;;;;;;;;;;;;;;343497;28;849;-64
2022/04/23 00:17:30;;;;;;;;;;;;;;;;;;343364;28;913;-53
2022/04/23 00:17:43;;;;;;;;;;;;;;;;;;343193;28;954;-52
2022/04/23 00:17:53;;;;;;;;;;;;;;;;;;343448;28;1088;-54
2022/04/23 00:18:05;;;;;;;;;;;;;;;;;;343498;28;877;-55
2022/04/23 00:18:15;;;;;;;;;;;;;;;;;;343250;28;1918;-54
2022/04/23 00:18:25;;;;;;;;;;;;;;;;;;343394;28;882;-58
2022/04/23 00:18:36;;;;;;;;;;;;;;;;;;343476;28;886;-64
2022/04/23 00:18:46;;;;;;;;;;;;;;;;;;343430;28;884;-53
2022/04/23 00:18:58;;;;;;;;;;;;;;;;;;343463;28;925;-55
2022/04/23 00:19:09;;;;;;;;;;;;;;;;;;343540;28;1104;-54
2022/04/23 00:19:19;;;;;;;;;;;;;;;;;;343542;28;867;-63
2022/04/23 00:19:30;;;;;;;;;;;;;;;;;;343278;28;822;-59
2022/04/23 00:19:40;;;;;;;;;;;;;;;;;;343431;28;783;-60
2022/04/23 00:19:50;;;;;;;;;;;;;;;;;;343504;28;831;-60
2022/04/23 00:20:01;;;;;;;;;;;;;;;;;;343394;28;938;-59
2022/04/23 00:20:12;;;;;;;;;;;;;;;;;;343590;28;980;-61
2022/04/23 00:20:24;;;;;;;;;;;;;;;;;;343336;28;822;-54
2022/04/23 00:20:35;;;;;;;;;;;;;;;;;;343429;28;1030;-59
2022/04/23 00:20:49;;;;;;;;;;;;;;;;;;343657;28;1643;-56
2022/04/23 00:20:59;;;;;;;;;;;;;;;;;;343488;28;854;-62
2022/04/23 00:21:09;;;;;;;;;;;;;;;;;;343442;28;1090;-52
2022/04/23 00:21:20;;;;;;;;;;;;;;;;;;343552;28;945;-60
2022/04/23 00:21:30;;;;;;;;;;;;;;;;;;343322;28;854;-52
2022/04/23 00:21:40;;;;;;;;;;;;;;;;;;343504;28;799;-57
2022/04/23 00:21:51;;;;;;;;;;;;;;;;;;343386;28;951;-62
2022/04/23 00:22:02;;;;;;;;;;;;;;;;;;343571;28;986;-54
2022/04/23 00:22:13;;;;;;;;;;;;;;;;;;343554;28;842;-60
2022/04/23 00:22:23;;;;;;;;;;;;;;;;;;343292;28;1149;-58
2022/04/23 00:22:35;;;;;;;;;;;;;;;;;;343600;28;799;-55
2022/04/23 00:22:45;;;;;;;;;;;;;;;;;;343625;28;771;-57
2022/04/23 00:22:56;;;;;;;;;;;;;;;;;;343260;28;767;-59
2022/04/23 00:23:07;;;;;;;;;;;;;;;;;;343476;28;1090;-58
2022/04/23 00:23:17;;;;;;;;;;;;;;;;;;343525;28;838;-62
2022/04/23 00:23:31;;;;;;;;;;;;;;;;;;343334;28;882;-56
2022/04/23 00:23:41;;;;;;;;;;;;;;;;;;343222;28;1131;-62
2022/04/23 00:23:52;;;;;;;;;;;;;;;;;;343347;28;838;-59
2022/04/23 00:24:04;;;;;;;;;;;;;;;;;;343434;28;921;-56
2022/04/23 00:24:14;;;;;;;;;;;;;;;;;;343460;28;1082;-54
2022/04/23 00:24:24;;;;;;;;;;;;;;;;;;343360;28;782;-59
2022/04/23 00:24:35;;;;;;;;;;;;;;;;;;343604;28;835;-61
2022/04/23 00:24:45;;;;;;;;;;;;;;;;;;343455;28;1075;-52
2022/04/23 00:24:55;;;;;;;;;;;;;;;;;;343504;28;874;-57
2022/04/23 00:25:06;;;;;;;;;;;;;;;;;;343567;28;992;-55
2022/04/23 00:25:16;;;;;;;;;;;;;;;;;;343506;28;854;-57
2022/04/23 00:25:27;;;;;;;;;;;;;;;;;;343244;28;908;-64
2022/04/23 00:25:38;;;;;;;;;;;;;;;;;;343369;28;993;-61
2022/04/23 00:25:51;;;;;;;;;;;;;;;;;;343399;28;1345;-53
2022/04/23 00:26:02;;;;;;;;;;;;;;;;;;343176;28;984;-57
2022/04/23 00:26:12;;;;;;;;;;;;;;;;;;343571;28;811;-50
2022/04/23 00:26:22;;;;;;;;;;;;;;;;;;343175;28;861;-58
2022/04/23 00:26:33;;;;;;;;;;;;;;;;;;343380;28;971;-51
2022/04/23 00:26:44;;;;;;;;;;;;;;;;;;343288;28;830;-63
2022/04/23 00:26:54;;;;;;;;;;;;;;;;;;342024;28;1213;-56
2022/04/23 00:27:06;;;;;;;;;;;;;;;;;;340750;28;1271;-62
2022/04/23 00:27:16;;;;;;;;;;;;;;;;;;340684;29;926;-59
2022/04/23 00:27:27;;;;;;;;;;;;;;;;;;340621;28;1659;-55
2022/04/23 00:27:37;;;;;;;;;;;;;;;;;;340739;28;846;-55
2022/04/23 00:27:48;;;;;;;;;;;;;;;;;;341867;28;1151;-53
2022/04/23 00:27:58;;;;;;;;;;;;;;;;;;341997;28;870;-57
2022/04/23 00:28:10;;;;;;;;;;;;;;;;;;342152;28;1169;-58
2022/04/23 00:28:20;;;;;;;;;;;;;;;;;;342015;28;839;-63
2022/04/23 00:28:30;;;;;;;;;;;;;;;;;;341833;28;890;-58
2022/04/23 00:28:41;;;;;;;;;;;;;;;;;;342079;28;944;-60
2022/04/23 00:28:51;;;;;;;;;;;;;;;;;;342773;28;929;-56
2022/04/23 00:29:01;;;;;;;;;;;;;;;;;;343246;28;1085;-55
2022/04/23 00:29:11;;;;;;;;;;;;;;;;;;343428;28;847;-64
2022/04/23 00:29:22;;;;;;;;;;;;;;;;;;343262;28;858;-52
2022/04/23 00:29:32;;;;;;;;;;;;;;;;;;343548;28;827;-53
2022/04/23 00:29:42;;;;;;;;;;;;;;;;;;343401;28;1001;-55
2022/04/23 00:29:53;;;;;;;;;;;;;;;;;;343457;28;933;-59
2022/04/23 00:30:03;;;;;;;;;;;;;;;;;;343507;28;846;-56
2022/04/23 00:30:14;;;;;;;;;;;;;;;;;;343478;28;938;-58
2022/04/23 00:30:24;;;;;;;;;;;;;;;;;;343400;28;985;-61
2022/04/23 00:30:35;;;;;;;;;;;;;;;;;;343441;28;945;-55
2022/04/23 00:30:46;;;;;;;;;;;;;;;;;;343390;28;947;-61
2022/04/23 00:30:56;;;;;;;;;;;;;;;;;;343392;28;796;-60
2022/04/23 00:31:06;;;;;;;;;;;;;;;;;;343448;28;802;-57
2022/04/23 00:31:17;;;;;;;;;;;;;;;;;;343312;28;1610;-63
2022/04/23 00:31:27;;;;;;;;;;;;;;;;;;343289;28;1092;-60
2022/04/23 00:31:37;;;;;;;;;;;;;;;;;;343498;28;923;-56
2022/04/23 00:31:48;;;;;;;;;;;;;;;;;;343556;28;897;-64
2022/04/23 00:31:58;;;;;;;;;;;;;;;;;;343142;28;980;-59
2022/04/23 00:32:09;;;;;;;;;;;;;;;;;;343613;28;795;-54
2022/04/23 00:32:19;;;;;;;;;;;;;;;;;;343414;28;933;-64
2022/04/23 00:32:29;;;;;;;;;;;;;;;;;;343300;28;827;-45
2022/04/23 00:32:40;;;;;;;;;;;;;;;;;;343353;28;995;-60
2022/04/23 00:32:50;;;;;;;;;;;;;;;;;;343614;28;930;-57
2022/04/23 00:33:02;;;;;;;;;;;;;;;;;;343309;28;779;-62
2022/04/23 00:33:12;;;;;;;;;;;;;;;;;;343436;28;945;-55
2022/04/23 00:33:22;;;;;;;;;;;;;;;;;;343192;28;846;-62
2022/04/23 00:33:37;;;;;;;;;;;;;;;;;;343512;28;957;-58
2022/04/23 00:33:47;;;;;;;;;;;;;;;;;;343462;28;899;-62
2022/04/23 00:33:58;;;;;;;;;;;;;;;;;;343300;28;867;-54
2022/04/23 00:34:08;;;;;;;;;;;;;;;;;;343652;28;1022;-58
2022/04/23 00:34:19;;;;;;;;;;;;;;;;;;343444;28;909;-54
2022/04/23 00:34:29;;;;;;;;;;;;;;;;;;343315;28;976;-61
2022/04/23 00:34:39;;;;;;;;;;;;;;;;;;343443;28;846;-55
2022/04/23 00:34:50;;;;;;;;;;;;;;;;;;343479;28;913;-59
2022/04/23 00:35:00;;;;;;;;;;;;;;;;;;343350;28;893;-59
2022/04/23 00:35:19;;;;;;;;;;;;;;;;;;343549;28;1304;-51
2022/04/23 00:35:29;;;;;;;;;;;;;;;;;;343375;28;894;-51
2022/04/23 00:35:40;;;;;;;;;;;;;;;;;;343339;28;898;-60
2022/04/23 00:35:50;;;;;;;;;;;;;;;;;;343594;28;909;-57
2022/04/23 00:36:01;;;;;;;;;;;;;;;;;;343303;28;784;-60
2022/04/23 00:36:11;;;;;;;;;;;;;;;;;;343442;28;970;-63
2022/04/23 00:36:23;;;;;;;;;;;;;;;;;;343469;28;842;-56
2022/04/23 00:36:33;;;;;;;;;;;;;;;;;;343586;28;819;-60
2022/04/23 00:36:43;;;;;;;;;;;;;;;;;;343541;28;865;-64
2022/04/23 00:36:54;;;;;;;;;;;;;;;;;;343413;28;930;-54
2022/04/23 00:37:04;;;;;;;;;;;;;;;;;;343666;28;783;-63
2022/04/23 00:37:14;;;;;;;;;;;;;;;;;;343470;28;858;-56
2022/04/23 00:37:25;;;;;;;;;;;;;;;;;;343178;28;1170;-61
2022/04/23 00:37:35;;;;;;;;;;;;;;;;;;343506;28;834;-61
2022/04/23 00:37:46;;;;;;;;;;;;;;;;;;343595;28;968;-54
2022/04/23 00:37:56;;;;;;;;;;;;;;;;;;343390;28;950;-57
2022/04/23 00:38:07;;;;;;;;;;;;;;;;;;343359;28;1012;-58
2022/04/23 00:38:18;;;;;;;;;;;;;;;;;;343516;28;1915;-60
2022/04/23 00:38:28;;;;;;;;;;;;;;;;;;343047;28;1127;-56
2022/04/23 00:38:42;;;;;;;;;;;;;;;;;;343325;28;903;-54
2022/04/23 00:38:53;;;;;;;;;;;;;;;;;;343574;28;926;-62
2022/04/23 00:39:05;;;;;;;;;;;;;;;;;;343405;28;783;-57
2022/04/23 00:39:15;;;;;;;;;;;;;;;;;;343428;28;1137;-59
2022/04/23 00:39:25;;;;;;;;;;;;;;;;;;343399;28;897;-63
2022/04/23 00:39:36;;;;;;;;;;;;;;;;;;343422;28;1211;-58
2022/04/23 00:39:48;;;;;;;;;;;;;;;;;;343476;28;942;-61
2022/04/23 00:39:58;;;;;;;;;;;;;;;;;;343250;28;942;-59
2022/04/23 00:40:16;;;;;;;;;;;;;;;;;;343545;28;822;-59
2022/04/23 00:40:27;;;;;;;;;;;;;;;;;;343159;28;1014;-55
2022/04/23 00:40:39;;;;;;;;;;;;;;;;;;343547;28;997;-59
2022/04/23 00:40:50;;;;;;;;;;;;;;;;;;343572;28;878;-62
2022/04/23 00:41:00;;;;;;;;;;;;;;;;;;343272;28;1058;-57
2022/04/23 00:41:45;;;;;;;;;;;;;;;;;;343671;28;803;-56
2022/04/23 00:41:45;;;;;;;;;;;;;;;;;;343523;28;933;-60
2022/04/23 00:41:59;;;;;;;;;;;;;;;;;;343285;28;805;-59
2022/04/23 00:42:11;;;;;;;;;;;;;;;;;;343454;28;979;-51
2022/04/23 00:42:21;;;;;;;;;;;;;;;;;;343559;28;894;-58
2022/04/23 00:42:32;;;;;;;;;;;;;;;;;;343510;28;787;-63
2022/04/23 00:42:56;;;;;;;;;;;;;;;;;;343435;28;858;-61
2022/04/23 00:43:12;;;;;;;;;;;;;;;;;;343621;28;1008;-59
2022/04/23 00:43:29;;;;;;;;;;;;;;;;;;343315;28;953;-58
2022/04/23 00:43:47;;;;;;;;;;;;;;;;;;343499;28;926;-60
2022/04/23 00:43:57;;;;;;;;;;;;;;;;;;343270;28;1035;-53
2022/04/23 00:44:08;;;;;;;;;;;;;;;;;;343565;28;780;-56
2022/04/23 00:44:18;;;;;;;;;;;;;;;;;;343493;28;878;-60
2022/04/23 00:44:29;;;;;;;;;;;;;;;;;;343399;28;842;-60
2022/04/23 00:44:39;;;;;;;;;;;;;;;;;;343436;28;1113;-60
2022/04/23 00:44:49;;;;;;;;;;;;;;;;;;343516;28;1064;-60
2022/04/23 00:44:59;;;;;;;;;;;;;;;;;;343445;28;1016;-57
2022/04/23 00:45:10;;;;;;;;;;;;;;;;;;343391;28;980;-54
2022/04/23 00:45:27;;;;;;;;;;;;;;;;;;343490;28;823;-55
2022/04/23 00:45:38;;;;;;;;;;;;;;;;;;343435;28;866;-61
2022/04/23 00:45:48;;;;;;;;;;;;;;;;;;343458;28;968;-55
2022/04/23 00:45:58;;;;;;;;;;;;;;;;;;343036;28;937;-50
2022/04/23 00:46:08;;;;;;;;;;;;;;;;;;343629;28;1058;-52
2022/04/23 00:46:19;;;;;;;;;;;;;;;;;;343507;28;910;-58
2022/04/23 00:46:29;;;;;;;;;;;;;;;;;;343193;28;1081;-61
2022/04/23 00:46:40;;;;;;;;;;;;;;;;;;343364;28;901;-53
2022/04/23 00:46:50;;;;;;;;;;;;;;;;;;343500;28;779;-57
2022/04/23 00:47:00;;;;;;;;;;;;;;;;;;343306;28;959;-56
2022/04/23 00:47:10;;;;;;;;;;;;;;;;;;343558;28;867;-55
2022/04/23 00:47:21;;;;;;;;;;;;;;;;;;343425;28;917;-52
2022/04/23 00:47:31;;;;;;;;;;;;;;;;;;343302;28;921;-58
2022/04/23 00:47:41;;;;;;;;;;;;;;;;;;343436;28;867;-61
2022/04/23 00:47:52;;;;;;;;;;;;;;;;;;343492;28;890;-54
2022/04/23 00:48:03;;;;;;;;;;;;;;;;;;343353;28;787;-57
2022/04/23 00:48:13;;;;;;;;;;;;;;;;;;343488;28;950;-58
2022/04/23 00:48:26;;;;;;;;;;;;;;;;;;343313;28;847;-55
2022/04/23 00:48:36;;;;;;;;;;;;;;;;;;343395;28;910;-52
2022/04/23 00:48:46;;;;;;;;;;;;;;;;;;343449;28;969;-60
2022/04/23 00:49:00;;;;;;;;;;;;;;;;;;343432;28;922;-53
2022/04/23 00:49:11;;;;;;;;;;;;;;;;;;343531;28;1024;-54
2022/04/23 00:49:21;;;;;;;;;;;;;;;;;;343302;28;865;-51
2022/04/23 00:49:33;;;;;;;;;;;;;;;;;;343392;28;917;-58
2022/04/23 00:49:43;;;;;;;;;;;;;;;;;;343378;28;822;-59
2022/04/23 00:49:53;;;;;;;;;;;;;;;;;;343544;28;899;-53
2022/04/23 00:50:04;;;;;;;;;;;;;;;;;;343227;28;1163;-61
2022/04/23 00:50:15;;;;;;;;;;;;;;;;;;343434;28;867;-51
2022/04/23 00:50:25;;;;;;;;;;;;;;;;;;343311;28;969;-62
2022/04/23 00:50:36;;;;;;;;;;;;;;;;;;343317;28;1108;-60
2022/04/23 00:50:46;;;;;;;;;;;;;;;;;;343507;28;1037;-55
2022/04/23 00:50:58;;;;;;;;;;;;;;;;;;343551;28;881;-47
2022/04/23 00:51:12;;;;;;;;;;;;;;;;;;343417;28;1194;-59
2022/04/23 00:51:22;;;;;;;;;;;;;;;;;;343395;28;992;-51
2022/04/23 00:51:33;;;;;;;;;;;;;;;;;;343534;28;920;-60
2022/04/23 00:51:43;;;;;;;;;;;;;;;;;;343348;28;902;-56
2022/04/23 00:51:54;;;;;;;;;;;;;;;;;;343395;28;1044;-59
2022/04/23 00:52:05;;;;;;;;;;;;;;;;;;343389;28;1027;-58
2022/04/23 00:52:15;;;;;;;;;;;;;;;;;;343482;28;941;-58
2022/04/23 00:52:27;;;;;;;;;;;;;;;;;;343221;28;987;-57
2022/04/23 00:52:37;;;;;;;;;;;;;;;;;;343473;28;886;-61
2022/04/23 00:52:53;;;;;;;;;;;;;;;;;;343517;28;902;-60
2022/04/23 00:53:03;;;;;;;;;;;;;;;;;;343256;28;989;-58
2022/04/23 00:53:14;;;;;;;;;;;;;;;;;;343419;28;926;-62
2022/04/23 00:53:24;;;;;;;;;;;;;;;;;;343036;28;869;-61
2022/04/23 00:53:36;;;;;;;;;;;;;;;;;;343399;28;886;-60
2022/04/23 00:53:47;;;;;;;;;;;;;;;;;;343578;28;1657;-52
2022/04/23 00:53:59;;;;;;;;;;;;;;;;;;343452;28;802;-61
2022/04/23 00:54:09;;;;;;;;;;;;;;;;;;343244;28;1142;-56
2022/04/23 00:54:22;;;;;;;;;;;;;;;;;;343546;28;945;-63
2022/04/23 00:54:33;;;;;;;;;;;;;;;;;;343451;28;810;-57
2022/04/23 00:54:44;;;;;;;;;;;;;;;;;;343426;28;969;-61
2022/04/23 00:54:54;;;;;;;;;;;;;;;;;;343449;28;926;-60
2022/04/23 00:55:05;;;;;;;;;;;;;;;;;;343554;28;859;-59
2022/04/23 00:55:16;;;;;;;;;;;;;;;;;;343342;28;1445;-58
2022/04/23 00:55:27;;;;;;;;;;;;;;;;;;343290;28;946;-59
2022/04/23 00:55:38;;;;;;;;;;;;;;;;;;343550;28;866;-61
2022/04/23 00:55:48;;;;;;;;;;;;;;;;;;343467;28;878;-55
2022/04/23 00:55:59;;;;;;;;;;;;;;;;;;343230;28;1259;-51
2022/04/23 00:56:10;;;;;;;;;;;;;;;;;;343480;28;941;-61
2022/04/23 00:56:22;;;;;;;;;;;;;;;;;;343407;28;905;-59
2022/04/23 00:56:36;;;;;;;;;;;;;;;;;;343362;28;931;-53
2022/04/23 00:56:46;;;;;;;;;;;;;;;;;;343593;28;969;-57
2022/04/23 00:56:57;;;;;;;;;;;;;;;;;;343534;28;901;-60
2022/04/23 00:57:09;;;;;;;;;;;;;;;;;;343404;28;1151;-59
2022/04/23 00:57:20;;;;;;;;;;;;;;;;;;343401;28;782;-60
2022/04/23 00:57:31;;;;;;;;;;;;;;;;;;343420;28;842;-60
2022/04/23 00:57:42;;;;;;;;;;;;;;;;;;343457;28;826;-54
2022/04/23 00:57:52;;;;;;;;;;;;;;;;;;343448;28;905;-62
2022/04/23 00:58:03;;;;;;;;;;;;;;;;;;343365;28;791;-55
2022/04/23 00:58:17;;;;;;;;;;;;;;;;;;343556;28;914;-61
2022/04/23 00:58:27;;;;;;;;;;;;;;;;;;343192;28;1230;-59
2022/04/23 00:58:38;;;;;;;;;;;;;;;;;;343514;28;877;-59
2022/04/23 00:58:49;;;;;;;;;;;;;;;;;;343524;28;894;-60
2022/04/23 00:59:00;;;;;;;;;;;;;;;;;;343310;28;1115;-55
2022/04/23 00:59:11;;;;;;;;;;;;;;;;;;343532;28;889;-64
2022/04/23 00:59:21;;;;;;;;;;;;;;;;;;343476;28;822;-55
2022/04/23 00:59:32;;;;;;;;;;;;;;;;;;343274;28;877;-57
2022/04/23 00:59:43;;;;;;;;;;;;;;;;;;343465;28;956;-55
2022/04/23 00:59:54;;;;;;;;;;;;;;;;;;343559;28;771;-60
2022/04/23 01:00:06;;;;;;;;;;;;;;;;;;343225;28;1048;-57
2022/04/23 01:00:18;;;;;;;;;;;;;;;;;;343367;28;1174;-59
2022/04/23 01:00:30;;;;;;;;;;;;;;;;;;343286;28;1604;-57
2022/04/23 01:00:41;;;;;;;;;;;;;;;;;;343390;28;819;-51
2022/04/23 01:00:51;;;;;;;;;;;;;;;;;;343100;28;971;-56
2022/04/23 01:01:01;;;;;;;;;;;;;;;;;;343544;28;925;-61
2022/04/23 01:01:11;;;;;;;;;;;;;;;;;;343400;28;957;-58
2022/04/23 01:01:23;;;;;;;;;;;;;;;;;;343025;28;1062;-53
2022/04/23 01:01:34;;;;;;;;;;;;;;;;;;343411;28;830;-57
2022/04/23 01:01:45;;;;;;;;;;;;;;;;;;343539;28;949;-57
2022/04/23 01:01:55;;;;;;;;;;;;;;;;;;343465;28;865;-63
2022/04/23 01:02:08;;;;;;;;;;;;;;;;;;343490;28;918;-48
2022/04/23 01:02:18;;;;;;;;;;;;;;;;;;343373;28;890;-56
2022/04/23 01:02:28;;;;;;;;;;;;;;;;;;343314;28;922;-57
2022/04/23 01:02:39;;;;;;;;;;;;;;;;;;343428;28;982;-59
2022/04/23 01:02:49;;;;;;;;;;;;;;;;;;343477;28;893;-62
2022/04/23 01:02:59;;;;;;;;;;;;;;;;;;343566;28;838;-60
2022/04/23 01:03:12;;;;;;;;;;;;;;;;;;343426;28;1077;-57
2022/04/23 01:03:22;;;;;;;;;;;;;;;;;;343247;28;976;-50
2022/04/23 01:03:33;;;;;;;;;;;;;;;;;;343436;28;755;-59
2022/04/23 01:03:43;;;;;;;;;;;;;;;;;;343558;28;1106;-58
2022/04/23 01:03:54;;;;;;;;;;;;;;;;;;343131;28;1250;-58
2022/04/23 01:04:06;;;;;;;;;;;;;;;;;;343621;28;826;-59
2022/04/23 01:04:16;;;;;;;;;;;;;;;;;;343483;28;839;-59
2022/04/23 01:04:28;;;;;;;;;;;;;;;;;;343137;28;985;-57
2022/04/23 01:04:38;;;;;;;;;;;;;;;;;;343630;28;874;-58
2022/04/23 01:04:49;;;;;;;;;;;;;;;;;;343477;28;930;-60
2022/04/23 01:04:59;;;;;;;;;;;;;;;;;;343412;28;1140;-59
2022/04/23 01:05:10;;;;;;;;;;;;;;;;;;343336;28;798;-56
2022/04/23 01:05:23;;;;;;;;;;;;;;;;;;343457;28;794;-54
2022/04/23 01:05:34;;;;;;;;;;;;;;;;;;343242;28;985;-57
2022/04/23 01:05:46;;;;;;;;;;;;;;;;;;343667;28;878;-57
2022/04/23 01:05:57;;;;;;;;;;;;;;;;;;343277;28;984;-54
2022/04/23 01:06:09;;;;;;;;;;;;;;;;;;343488;28;878;-61
2022/04/23 01:06:20;;;;;;;;;;;;;;;;;;343459;28;918;-63
2022/04/23 01:06:33;;;;;;;;;;;;;;;;;;343271;28;795;-56
2022/04/23 01:06:44;;;;;;;;;;;;;;;;;;343598;28;910;-56
2022/04/23 01:06:55;;;;;;;;;;;;;;;;;;343307;28;1635;-62
2022/04/23 01:07:05;;;;;;;;;;;;;;;;;;343462;28;802;-54
2022/04/23 01:07:15;;;;;;;;;;;;;;;;;;343367;28;806;-59
2022/04/23 01:07:25;;;;;;;;;;;;;;;;;;343091;28;970;-60
2022/04/23 01:07:38;;;;;;;;;;;;;;;;;;343343;28;893;-60
2022/04/23 01:07:48;;;;;;;;;;;;;;;;;;343361;28;794;-60
2022/04/23 01:08:02;;;;;;;;;;;;;;;;;;343246;28;921;-59
2022/04/23 01:08:15;;;;;;;;;;;;;;;;;;343197;28;1016;-57
2022/04/23 01:08:28;;;;;;;;;;;;;;;;;;343141;28;886;-58
2022/04/23 01:08:38;;;;;;;;;;;;;;;;;;343321;28;1148;-60
2022/04/23 01:08:49;;;;;;;;;;;;;;;;;;343433;28;890;-55
2022/04/23 01:09:00;;;;;;;;;;;;;;;;;;343361;28;992;-59
2022/04/23 01:09:10;;;;;;;;;;;;;;;;;;343314;28;1144;-61
2022/04/23 01:09:21;;;;;;;;;;;;;;;;;;343441;28;995;-53
2022/04/23 01:09:31;;;;;;;;;;;;;;;;;;343269;28;850;-57
2022/04/23 01:09:44;;;;;;;;;;;;;;;;;;343412;28;889;-49
2022/04/23 01:09:54;;;;;;;;;;;;;;;;;;343349;28;989;-56
2022/04/23 01:10:06;;;;;;;;;;;;;;;;;;343590;28;831;-61
2022/04/23 01:10:17;;;;;;;;;;;;;;;;;;343453;28;815;-59
2022/04/23 01:10:27;;;;;;;;;;;;;;;;;;343117;28;911;-60
2022/04/23 01:10:38;;;;;;;;;;;;;;;;;;343557;28;964;-63
2022/04/23 01:10:48;;;;;;;;;;;;;;;;;;343522;28;862;-57
2022/04/23 01:10:59;;;;;;;;;;;;;;;;;;343434;28;984;-57
2022/04/23 01:11:10;;;;;;;;;;;;;;;;;;343492;28;945;-58
2022/04/23 01:11:20;;;;;;;;;;;;;;;;;;343523;28;878;-59
2022/04/23 01:11:31;;;;;;;;;;;;;;;;;;343232;28;1025;-61
2022/04/23 01:11:41;;;;;;;;;;;;;;;;;;343323;28;961;-63
2022/04/23 01:11:52;;;;;;;;;;;;;;;;;;343465;28;890;-57
2022/04/23 01:12:03;;;;;;;;;;;;;;;;;;343492;28;799;-65
2022/04/23 01:12:13;;;;;;;;;;;;;;;;;;343283;28;1343;-53
2022/04/23 01:12:23;;;;;;;;;;;;;;;;;;343342;28;771;-58
2022/04/23 01:12:35;;;;;;;;;;;;;;;;;;343437;28;830;-59
2022/04/23 01:12:46;;;;;;;;;;;;;;;;;;343449;28;1034;-59
2022/04/23 01:12:56;;;;;;;;;;;;;;;;;;343385;28;898;-56
2022/04/23 01:13:08;;;;;;;;;;;;;;;;;;343486;28;889;-58
2022/04/23 01:13:18;;;;;;;;;;;;;;;;;;343496;28;925;-65
2022/04/23 01:13:29;;;;;;;;;;;;;;;;;;343076;28;985;-54
2022/04/23 01:13:43;;;;;;;;;;;;;;;;;;343502;28;882;-60
2022/04/23 01:13:53;;;;;;;;;;;;;;;;;;343345;28;641;-63
2022/04/23 01:14:03;;;;;;;;;;;;;;;;;;343219;28;1073;-57
2022/04/23 01:14:15;;;;;;;;;;;;;;;;;;343350;28;930;-60
2022/04/23 01:14:26;;;;;;;;;;;;;;;;;;343060;28;1062;-60
2022/04/23 01:14:55;;;;;;;;;;;;;;;;;;343278;28;969;-59
2022/04/23 01:15:09;;;;;;;;;;;;;;;;;;343320;28;846;-48
2022/04/23 01:15:21;;;;;;;;;;;;;;;;;;343471;28;961;-55
2022/04/23 01:15:33;;;;;;;;;;;;;;;;;;342736;28;906;-61
2022/04/23 01:16:02;;;;;;;;;;;;;;;;;;343452;28;1001;-59
2022/04/23 01:16:12;;;;;;;;;;;;;;;;;;343247;28;882;-51
2022/04/23 01:16:22;;;;;;;;;;;;;;;;;;342930;28;1166;-61
2022/04/23 01:16:33;;;;;;;;;;;;;;;;;;343235;28;870;-56
2022/04/23 01:16:43;;;;;;;;;;;;;;;;;;343337;28;772;-58
2022/04/23 01:16:54;;;;;;;;;;;;;;;;;;343223;28;816;-59
2022/04/23 01:17:04;;;;;;;;;;;;;;;;;;343365;28;903;-60
2022/04/23 01:17:14;;;;;;;;;;;;;;;;;;343549;28;945;-59
2022/04/23 01:17:24;;;;;;;;;;;;;;;;;;343311;28;803;-62
2022/04/23 01:17:35;;;;;;;;;;;;;;;;;;343402;28;970;-58
2022/04/23 01:17:47;;;;;;;;;;;;;;;;;;343560;28;953;-60
2022/04/23 01:17:57;;;;;;;;;;;;;;;;;;343473;28;1268;-56
2022/04/23 01:18:07;;;;;;;;;;;;;;;;;;343374;28;908;-55
2022/04/23 01:18:18;;;;;;;;;;;;;;;;;;343344;28;1922;-54
2022/04/23 01:18:28;;;;;;;;;;;;;;;;;;343182;28;902;-59
2022/04/23 01:18:42;;;;;;;;;;;;;;;;;;343458;28;1001;-58
2022/04/23 01:18:52;;;;;;;;;;;;;;;;;;343246;28;1031;-63
2022/04/23 01:19:03;;;;;;;;;;;;;;;;;;343535;28;901;-56
2022/04/23 01:19:13;;;;;;;;;;;;;;;;;;343460;28;976;-61
2022/04/23 01:19:23;;;;;;;;;;;;;;;;;;343135;28;935;-49
2022/04/23 01:19:33;;;;;;;;;;;;;;;;;;343451;28;886;-64